Time;durP1;ratioP1;P1;durP2;ratioP2;P2;SDS_P1;SDS_P2;PMS_P1;PMS_P2;Temp;Humidity;BMP_temperature;BMP_pressure;BME280_temperature;BME280_humidity;BME280_pressure;Samples;Min_cycle;Max_cycle;Signal;HPM_P1;HPM_P2
2024/02/18 00:00:52;;;;;;;8.05;5.90;;;;;;;;;;5035812;28;20200;-80
2024/02/18 00:03:18;;;;;;;9.77;5.82;;;;;;;;;;5034175;28;20179;-80
2024/02/18 00:05:44;;;;;;;8.37;5.73;;;;;;;;;;5028828;28;20190;-80
2024/02/18 00:08:09;;;;;;;9.07;5.33;;;;;;;;;;5035236;28;21038;-80
2024/02/18 00:10:35;;;;;;;9.13;6.03;;;;;;;;;;5041316;28;20772;-80
2024/02/18 00:13:01;;;;;;;7.47;5.70;;;;;;;;;;5032864;28;20429;-80
2024/02/18 00:15:27;;;;;;;8.07;5.97;;;;;;;;;;5023155;28;20422;-81
2024/02/18 00:17:53;;;;;;;8.65;6.00;;;;;;;;;;5024715;28;20441;-80
2024/02/18 00:20:19;;;;;;;9.90;6.07;;;;;;;;;;5030651;28;20186;-80
2024/02/18 00:22:45;;;;;;;8.30;6.53;;;;;;;;;;5040889;28;20496;-80
2024/02/18 00:25:11;;;;;;;11.52;6.72;;;;;;;;;;5036176;28;20189;-80
2024/02/18 00:27:38;;;;;;;11.48;6.80;;;;;;;;;;5032028;28;20208;-80
2024/02/18 00:30:05;;;;;;;13.82;6.80;;;;;;;;;;5038222;28;20655;-81
2024/02/18 00:32:31;;;;;;;12.85;6.10;;;;;;;;;;5037755;28;20185;-83
2024/02/18 00:34:57;;;;;;;9.30;6.60;;;;;;;;;;5026334;28;20232;-80
2024/02/18 00:37:24;;;;;;;9.93;6.10;;;;;;;;;;5033870;28;20416;-80
2024/02/18 00:39:50;;;;;;;11.00;6.60;;;;;;;;;;5030740;28;20440;-80
2024/02/18 00:42:16;;;;;;;8.65;7.30;;;;;;;;;;5046080;28;20173;-80
2024/02/18 00:44:42;;;;;;;16.87;8.10;;;;;;;;;;5026107;28;20183;-80
2024/02/18 00:47:08;;;;;;;15.47;6.90;;;;;;;;;;5033004;28;20469;-80
2024/02/18 00:49:34;;;;;;;12.10;7.23;;;;;;;;;;5034556;28;20944;-80
2024/02/18 00:52:00;;;;;;;11.67;6.60;;;;;;;;;;5032505;28;20432;-79
2024/02/18 00:54:26;;;;;;;11.38;8.15;;;;;;;;;;5028754;28;20433;-80
2024/02/18 00:56:52;;;;;;;12.50;7.13;;;;;;;;;;5035773;28;20280;-80
2024/02/18 00:59:19;;;;;;;10.05;7.10;;;;;;;;;;5030076;28;20433;-80
2024/02/18 01:01:45;;;;;;;13.57;7.55;;;;;;;;;;5027819;28;20173;-80
2024/02/18 01:04:11;;;;;;;11.75;7.65;;;;;;;;;;5029399;28;20185;-80
2024/02/18 01:06:37;;;;;;;16.98;8.10;;;;;;;;;;5035166;28;20182;-80
2024/02/18 01:09:03;;;;;;;12.18;7.90;;;;;;;;;;5040060;28;20214;-80
2024/02/18 01:11:30;;;;;;;13.83;8.50;;;;;;;;;;5031967;28;20186;-80
2024/02/18 01:13:56;;;;;;;14.45;7.80;;;;;;;;;;5036522;28;20436;-80
2024/02/18 01:16:22;;;;;;;13.33;7.30;;;;;;;;;;5039336;28;20183;-80
2024/02/18 01:18:50;;;;;;;15.80;8.37;;;;;;;;;;5037278;28;20821;-80
2024/02/18 01:21:16;;;;;;;12.55;7.30;;;;;;;;;;5029998;28;20435;-80
2024/02/18 01:23:43;;;;;;;19.40;9.02;;;;;;;;;;5027632;28;20210;-80
2024/02/18 01:26:09;;;;;;;12.25;7.53;;;;;;;;;;5034750;28;20704;-80
2024/02/18 01:28:35;;;;;;;10.90;7.60;;;;;;;;;;5040152;28;20209;-80
2024/02/18 01:31:01;;;;;;;13.27;8.40;;;;;;;;;;5037875;28;20471;-80
2024/02/18 01:33:27;;;;;;;11.93;7.68;;;;;;;;;;5035476;28;20593;-80
2024/02/18 01:35:53;;;;;;;12.80;8.57;;;;;;;;;;5029793;28;20182;-80
2024/02/18 01:38:19;;;;;;;13.10;8.40;;;;;;;;;;5035539;28;20217;-80
2024/02/18 01:40:45;;;;;;;13.93;7.73;;;;;;;;;;5027253;28;20256;-80
2024/02/18 01:43:13;;;;;;;10.80;8.30;;;;;;;;;;5025953;28;20432;-80
2024/02/18 01:45:39;;;;;;;10.85;7.47;;;;;;;;;;5029944;28;20425;-80
2024/02/18 01:48:05;;;;;;;15.95;8.45;;;;;;;;;;5030032;28;20577;-79
2024/02/18 01:50:31;;;;;;;11.13;7.90;;;;;;;;;;5028648;28;20178;-80
2024/02/18 01:52:58;;;;;;;14.00;7.82;;;;;;;;;;5033119;28;20187;-80
2024/02/18 01:55:24;;;;;;;9.50;6.78;;;;;;;;;;5038098;28;20185;-80
2024/02/18 01:57:50;;;;;;;9.80;6.70;;;;;;;;;;5030464;28;20260;-80
2024/02/18 02:00:18;;;;;;;10.57;6.57;;;;;;;;;;5028261;28;20178;-80
2024/02/18 02:02:46;;;;;;;14.85;7.88;;;;;;;;;;5032817;28;20542;-80
2024/02/18 02:05:13;;;;;;;14.05;7.50;;;;;;;;;;5033023;28;20249;-80
2024/02/18 02:07:39;;;;;;;10.25;7.38;;;;;;;;;;5054274;28;20212;-80
2024/02/18 02:10:11;;;;;;;9.73;7.50;;;;;;;;;;5031102;28;20225;-80
2024/02/18 02:12:37;;;;;;;11.32;7.07;;;;;;;;;;5029547;28;20181;-80
2024/02/18 02:15:03;;;;;;;10.10;6.88;;;;;;;;;;5026558;28;20190;-80
2024/02/18 02:17:29;;;;;;;11.90;7.63;;;;;;;;;;5029244;28;20610;-80
2024/02/18 02:19:55;;;;;;;10.23;6.18;;;;;;;;;;5047469;28;20659;-80
2024/02/18 02:22:21;;;;;;;11.70;7.20;;;;;;;;;;5040848;28;20209;-79
2024/02/18 02:24:47;;;;;;;11.30;7.05;;;;;;;;;;5028532;28;20174;-82
2024/02/18 02:27:17;;;;;;;10.45;6.72;;;;;;;;;;5035789;28;20198;-82
2024/02/18 02:29:43;;;;;;;9.00;5.88;;;;;;;;;;5030019;28;20174;-82
2024/02/18 02:32:10;;;;;;;9.88;6.30;;;;;;;;;;5036071;28;20194;-82
2024/02/18 02:34:36;;;;;;;7.78;5.95;;;;;;;;;;5023777;28;20193;-83
2024/02/18 02:37:02;;;;;;;15.77;6.50;;;;;;;;;;5036896;28;20654;-82
2024/02/18 02:39:28;;;;;;;9.83;6.33;;;;;;;;;;5037904;28;20464;-83
2024/02/18 02:41:55;;;;;;;8.43;5.20;;;;;;;;;;5033904;28;20487;-80
2024/02/18 02:44:21;;;;;;;10.77;6.53;;;;;;;;;;5036251;28;20435;-80
2024/02/18 02:46:47;;;;;;;9.03;5.00;;;;;;;;;;5028334;28;20596;-80
2024/02/18 02:49:13;;;;;;;9.40;6.17;;;;;;;;;;5037802;28;20478;-80
2024/02/18 02:51:39;;;;;;;11.33;5.40;;;;;;;;;;5038507;28;20433;-80
2024/02/18 02:54:05;;;;;;;7.80;5.50;;;;;;;;;;5037683;28;20432;-80
2024/02/18 02:56:31;;;;;;;7.93;6.40;;;;;;;;;;5031705;28;20885;-80
2024/02/18 02:58:57;;;;;;;8.47;5.97;;;;;;;;;;5035504;28;20474;-80
2024/02/18 03:01:23;;;;;;;8.07;5.97;;;;;;;;;;5037401;28;20432;-79
2024/02/18 03:03:49;;;;;;;8.50;5.57;;;;;;;;;;5034953;28;20792;-80
2024/02/18 03:06:14;;;;;;;11.52;7.18;;;;;;;;;;5038426;28;20573;-80
2024/02/18 03:08:45;;;;;;;8.73;5.93;;;;;;;;;;5035070;28;20629;-80
2024/02/18 03:11:11;;;;;;;9.27;5.45;;;;;;;;;;5049292;28;20526;-79
2024/02/18 03:13:37;;;;;;;11.75;6.03;;;;;;;;;;5034427;28;20514;-80
2024/02/18 03:16:04;;;;;;;10.80;6.88;;;;;;;;;;5032540;28;20193;-80
2024/02/18 03:18:29;;;;;;;7.78;6.40;;;;;;;;;;5031405;28;20273;-80
2024/02/18 03:20:57;;;;;;;9.20;6.50;;;;;;;;;;5039209;28;20595;-80
2024/02/18 03:23:23;;;;;;;10.00;5.78;;;;;;;;;;5028964;28;20483;-80
2024/02/18 03:25:49;;;;;;;9.70;5.80;;;;;;;;;;5037571;28;20174;-80
2024/02/18 03:28:15;;;;;;;6.13;5.53;;;;;;;;;;5031492;28;20499;-80
2024/02/18 03:30:40;;;;;;;10.20;5.77;;;;;;;;;;5036751;28;20428;-80
2024/02/18 03:33:06;;;;;;;7.67;6.00;;;;;;;;;;5030900;28;20449;-80
2024/02/18 03:35:32;;;;;;;8.37;5.97;;;;;;;;;;5030568;28;20438;-81
2024/02/18 03:37:58;;;;;;;6.87;5.13;;;;;;;;;;5038949;28;20452;-81
2024/02/18 03:40:25;;;;;;;9.20;6.00;;;;;;;;;;5032026;28;20926;-80
2024/02/18 03:42:51;;;;;;;8.27;5.47;;;;;;;;;;5025198;28;20488;-81
2024/02/18 03:45:17;;;;;;;5.85;5.25;;;;;;;;;;5038065;28;20186;-80
2024/02/18 03:47:44;;;;;;;7.63;5.90;;;;;;;;;;5035009;28;20319;-80
2024/02/18 03:50:14;;;;;;;7.63;5.90;;;;;;;;;;5037237;28;20433;-80
2024/02/18 03:52:42;;;;;;;9.45;5.97;;;;;;;;;;5029817;28;20182;-80
2024/02/18 03:55:08;;;;;;;8.70;6.07;;;;;;;;;;5032872;28;20185;-80
2024/02/18 03:57:34;;;;;;;11.80;6.03;;;;;;;;;;5030336;28;20191;-81
2024/02/18 04:00:00;;;;;;;8.87;6.50;;;;;;;;;;5031715;28;20642;-80
2024/02/18 04:02:26;;;;;;;10.83;6.33;;;;;;;;;;5036585;28;20435;-80
2024/02/18 04:04:52;;;;;;;7.95;5.75;;;;;;;;;;5033336;28;20474;-81
2024/02/18 04:07:18;;;;;;;8.57;5.40;;;;;;;;;;5038387;28;20316;-80
2024/02/18 04:09:45;;;;;;;11.10;6.53;;;;;;;;;;5039934;28;20641;-80
2024/02/18 04:12:11;;;;;;;8.85;5.43;;;;;;;;;;5033785;28;20428;-80
2024/02/18 04:14:37;;;;;;;10.53;6.90;;;;;;;;;;5029338;28;20187;-80
2024/02/18 04:17:03;;;;;;;9.20;6.07;;;;;;;;;;5035201;28;20519;-80
2024/02/18 04:19:29;;;;;;;11.80;6.65;;;;;;;;;;5031786;28;20798;-80
2024/02/18 04:21:55;;;;;;;7.03;5.40;;;;;;;;;;5032972;28;20194;-80
2024/02/18 04:24:21;;;;;;;7.87;5.93;;;;;;;;;;5029798;28;20444;-80
2024/02/18 04:26:47;;;;;;;11.05;5.90;;;;;;;;;;5037809;28;20488;-80
2024/02/18 04:29:13;;;;;;;9.00;5.47;;;;;;;;;;5030125;28;20224;-80
2024/02/18 04:31:41;;;;;;;12.03;6.47;;;;;;;;;;5035755;28;20457;-81
2024/02/18 04:34:07;;;;;;;8.45;5.53;;;;;;;;;;5029294;28;20428;-81
2024/02/18 04:36:33;;;;;;;9.23;5.80;;;;;;;;;;5032354;28;20189;-80
2024/02/18 04:38:59;;;;;;;10.17;6.20;;;;;;;;;;5027461;28;20462;-80
2024/02/18 04:41:25;;;;;;;7.82;5.20;;;;;;;;;;5028856;28;20432;-80
2024/02/18 04:43:51;;;;;;;8.30;4.95;;;;;;;;;;5030131;28;20181;-80
2024/02/18 04:46:17;;;;;;;11.87;6.20;;;;;;;;;;5049432;28;20298;-80
2024/02/18 04:48:43;;;;;;;8.87;5.60;;;;;;;;;;5026815;28;20476;-80
2024/02/18 04:51:09;;;;;;;5.67;4.20;;;;;;;;;;5031494;28;20960;-80
2024/02/18 04:53:35;;;;;;;11.73;5.63;;;;;;;;;;5033282;28;20497;-80
2024/02/18 04:56:01;;;;;;;8.03;4.83;;;;;;;;;;5032855;28;20624;-80
2024/02/18 04:58:27;;;;;;;7.90;5.50;;;;;;;;;;5019734;28;20461;-80
2024/02/18 05:00:53;;;;;;;9.27;5.35;;;;;;;;;;5036972;28;20272;-80
2024/02/18 05:03:21;;;;;;;14.67;6.07;;;;;;;;;;5025957;28;20218;-80
2024/02/18 05:05:47;;;;;;;8.82;5.15;;;;;;;;;;5029026;28;20463;-80
2024/02/18 05:08:13;;;;;;;10.53;5.47;;;;;;;;;;5039716;28;20209;-80
2024/02/18 05:10:40;;;;;;;8.25;5.30;;;;;;;;;;5023704;28;20433;-80
2024/02/18 05:13:06;;;;;;;7.10;4.65;;;;;;;;;;5024865;28;20197;-81
2024/02/18 05:15:32;;;;;;;6.97;4.78;;;;;;;;;;5030998;28;20190;-80
2024/02/18 05:17:58;;;;;;;8.00;5.17;;;;;;;;;;5041717;28;20545;-80
2024/02/18 05:20:25;;;;;;;6.38;4.53;;;;;;;;;;5029006;28;20941;-83
2024/02/18 05:22:51;;;;;;;6.45;4.57;;;;;;;;;;5032378;28;20201;-80
2024/02/18 05:25:17;;;;;;;5.40;4.13;;;;;;;;;;5035881;28;20214;-80
2024/02/18 05:27:43;;;;;;;7.03;4.40;;;;;;;;;;5027213;28;20518;-80
2024/02/18 05:30:09;;;;;;;7.27;4.40;;;;;;;;;;5027220;28;20430;-80
2024/02/18 05:32:35;;;;;;;6.82;4.30;;;;;;;;;;5030609;28;20419;-80
2024/02/18 05:35:01;;;;;;;7.78;3.70;;;;;;;;;;5031008;28;20642;-80
2024/02/18 05:37:27;;;;;;;5.73;4.67;;;;;;;;;;5036431;28;20181;-80
2024/02/18 05:39:53;;;;;;;6.80;4.53;;;;;;;;;;5031283;28;20511;-80
2024/02/18 05:42:19;;;;;;;7.03;5.20;;;;;;;;;;5046834;28;20465;-80
2024/02/18 05:44:46;;;;;;;7.80;4.90;;;;;;;;;;5052976;28;20428;-80
2024/02/18 05:47:12;;;;;;;8.70;4.63;;;;;;;;;;5034209;28;20467;-80
2024/02/18 05:49:38;;;;;;;9.35;4.38;;;;;;;;;;5035821;28;20320;-80
2024/02/18 05:52:04;;;;;;;9.00;4.50;;;;;;;;;;5048997;28;20223;-80
2024/02/18 05:54:30;;;;;;;9.63;4.40;;;;;;;;;;5028683;28;20491;-80
2024/02/18 05:56:55;;;;;;;5.57;3.70;;;;;;;;;;5032669;28;20190;-80
2024/02/18 05:59:22;;;;;;;8.87;4.10;;;;;;;;;;5033966;28;20429;-80
2024/02/18 06:01:47;;;;;;;14.73;4.13;;;;;;;;;;5036060;28;20448;-80
2024/02/18 06:04:13;;;;;;;9.47;3.90;;;;;;;;;;5031865;28;20534;-80
2024/02/18 06:06:40;;;;;;;6.17;4.00;;;;;;;;;;5024820;28;20430;-80
2024/02/18 06:09:06;;;;;;;4.43;3.10;;;;;;;;;;5035285;28;20464;-81
2024/02/18 06:11:32;;;;;;;5.23;3.53;;;;;;;;;;5032240;28;20182;-80
2024/02/18 06:13:58;;;;;;;4.17;3.63;;;;;;;;;;5035289;28;20440;-80
2024/02/18 06:16:24;;;;;;;7.33;3.73;;;;;;;;;;5053774;28;20519;-80
2024/02/18 06:18:49;;;;;;;6.17;4.30;;;;;;;;;;5036746;28;20921;-81
2024/02/18 06:21:20;;;;;;;4.70;3.30;;;;;;;;;;5031543;28;20497;-80
2024/02/18 06:23:47;;;;;;;5.80;2.55;;;;;;;;;;5032515;28;20515;-79
2024/02/18 06:26:13;;;;;;;5.22;3.42;;;;;;;;;;5037911;28;20189;-81
2024/02/18 06:28:38;;;;;;;5.57;3.30;;;;;;;;;;5035015;28;20209;-80
2024/02/18 06:31:05;;;;;;;7.23;3.40;;;;;;;;;;5037826;28;20194;-80
2024/02/18 06:33:30;;;;;;;6.97;4.40;;;;;;;;;;5037508;28;20435;-82
2024/02/18 06:35:57;;;;;;;5.47;2.77;;;;;;;;;;5036719;28;20185;-80
2024/02/18 06:38:23;;;;;;;6.28;3.53;;;;;;;;;;5019042;28;20436;-80
2024/02/18 06:40:48;;;;;;;5.90;3.42;;;;;;;;;;5040866;28;20186;-80
2024/02/18 06:43:14;;;;;;;10.40;3.80;;;;;;;;;;5043104;28;20590;-81
2024/02/18 06:45:40;;;;;;;6.17;3.23;;;;;;;;;;5027793;28;20478;-80
2024/02/18 06:48:07;;;;;;;4.43;2.80;;;;;;;;;;5033808;28;20534;-81
2024/02/18 06:50:32;;;;;;;8.05;2.92;;;;;;;;;;5033383;28;20434;-80
2024/02/18 06:52:58;;;;;;;8.23;3.00;;;;;;;;;;5039480;28;20658;-81
2024/02/18 06:55:24;;;;;;;2.63;2.23;;;;;;;;;;5035663;28;20432;-80
2024/02/18 06:57:50;;;;;;;5.97;3.22;;;;;;;;;;5036872;28;20432;-80
2024/02/18 07:00:17;;;;;;;4.10;2.47;;;;;;;;;;5028763;28;20186;-80
2024/02/18 07:02:43;;;;;;;7.10;2.65;;;;;;;;;;5035642;28;20416;-80
2024/02/18 07:05:09;;;;;;;6.57;2.72;;;;;;;;;;5035407;28;20252;-79
2024/02/18 07:07:35;;;;;;;6.70;2.60;;;;;;;;;;5047204;28;20251;-80
2024/02/18 07:10:01;;;;;;;4.75;3.15;;;;;;;;;;5035998;28;20206;-80
2024/02/18 07:12:29;;;;;;;7.85;3.08;;;;;;;;;;5034153;28;20182;-80
2024/02/18 07:14:55;;;;;;;7.05;2.53;;;;;;;;;;5040429;28;20705;-80
2024/02/18 07:17:21;;;;;;;6.10;2.90;;;;;;;;;;5045601;28;20223;-80
2024/02/18 07:19:48;;;;;;;5.13;3.03;;;;;;;;;;5040518;28;20834;-80
2024/02/18 07:22:15;;;;;;;3.60;2.53;;;;;;;;;;5039872;28;20497;-80
2024/02/18 07:24:41;;;;;;;3.85;2.80;;;;;;;;;;5029710;28;20717;-81
2024/02/18 07:27:07;;;;;;;7.43;3.33;;;;;;;;;;5049179;28;20190;-80
2024/02/18 07:29:33;;;;;;;6.03;2.90;;;;;;;;;;5034525;28;20186;-80
2024/02/18 07:31:59;;;;;;;6.53;2.53;;;;;;;;;;5027019;28;20437;-80
2024/02/18 07:34:25;;;;;;;3.20;2.40;;;;;;;;;;5036990;28;20276;-81
2024/02/18 07:36:51;;;;;;;7.33;2.20;;;;;;;;;;5026369;28;20444;-80
2024/02/18 07:39:17;;;;;;;8.77;2.70;;;;;;;;;;5039537;28;20438;-80
2024/02/18 07:41:43;;;;;;;6.78;2.35;;;;;;;;;;5030974;28;21000;-80
2024/02/18 07:44:09;;;;;;;4.80;2.50;;;;;;;;;;5035022;28;20213;-80
2024/02/18 07:46:35;;;;;;;3.90;2.20;;;;;;;;;;5037525;28;20436;-80
2024/02/18 07:49:01;;;;;;;8.15;2.50;;;;;;;;;;5030338;28;20524;-80
2024/02/18 07:51:27;;;;;;;7.50;2.97;;;;;;;;;;5038682;28;20219;-81
2024/02/18 07:53:55;;;;;;;5.18;2.58;;;;;;;;;;5035253;28;20531;-80
2024/02/18 07:56:21;;;;;;;4.03;2.15;;;;;;;;;;5037272;28;20253;-80
2024/02/18 07:58:48;;;;;;;3.27;2.10;;;;;;;;;;5033123;28;20190;-81
2024/02/18 08:01:14;;;;;;;7.30;2.80;;;;;;;;;;5038057;28;20432;-81
2024/02/18 08:03:40;;;;;;;4.43;2.33;;;;;;;;;;5036986;28;20178;-81
2024/02/18 08:06:08;;;;;;;6.70;2.73;;;;;;;;;;5038634;28;20189;-80
2024/02/18 08:08:34;;;;;;;5.20;2.25;;;;;;;;;;5032877;28;20496;-81
2024/02/18 08:11:00;;;;;;;2.47;1.70;;;;;;;;;;5035158;28;20182;-80
2024/02/18 08:13:26;;;;;;;7.63;3.13;;;;;;;;;;5026568;28;20209;-82
2024/02/18 08:15:52;;;;;;;6.47;2.45;;;;;;;;;;5032025;28;20422;-81
2024/02/18 08:18:18;;;;;;;4.05;2.13;;;;;;;;;;5051461;28;20205;-81
2024/02/18 08:20:45;;;;;;;3.67;2.30;;;;;;;;;;5037269;28;20237;-81
2024/02/18 08:23:11;;;;;;;5.80;2.42;;;;;;;;;;5033519;28;20851;-81
2024/02/18 08:25:37;;;;;;;4.28;2.70;;;;;;;;;;5030312;28;20236;-81
2024/02/18 08:28:03;;;;;;;4.53;2.55;;;;;;;;;;5033595;28;20233;-80
2024/02/18 08:30:29;;;;;;;5.68;2.50;;;;;;;;;;5035675;28;20642;-80
2024/02/18 08:32:56;;;;;;;10.23;2.07;;;;;;;;;;5037791;28;20201;-81
2024/02/18 08:35:22;;;;;;;6.20;2.60;;;;;;;;;;5046802;28;20978;-80
2024/02/18 08:37:49;;;;;;;7.63;2.40;;;;;;;;;;5025263;28;20179;-79
2024/02/18 08:40:16;;;;;;;3.63;2.00;;;;;;;;;;5042971;28;20236;-81
2024/02/18 08:42:42;;;;;;;5.65;2.58;;;;;;;;;;5033522;28;20527;-80
2024/02/18 08:45:11;;;;;;;8.90;2.45;;;;;;;;;;5037385;28;20186;-80
2024/02/18 08:47:37;;;;;;;7.80;2.30;;;;;;;;;;5029651;28;20245;-81
2024/02/18 08:50:03;;;;;;;3.83;1.90;;;;;;;;;;5015147;28;20214;-80
2024/02/18 08:52:29;;;;;;;4.30;1.85;;;;;;;;;;5029453;28;20265;-80
2024/02/18 08:54:55;;;;;;;3.20;2.08;;;;;;;;;;5035856;28;20248;-80
2024/02/18 08:57:21;;;;;;;6.18;1.55;;;;;;;;;;5027079;28;20183;-81
2024/02/18 08:59:47;;;;;;;4.37;2.00;;;;;;;;;;5036862;28;20185;-80
2024/02/18 09:02:13;;;;;;;3.87;1.70;;;;;;;;;;5033430;28;20484;-81
2024/02/18 09:04:39;;;;;;;3.10;1.90;;;;;;;;;;5035203;28;20429;-81
2024/02/18 09:07:05;;;;;;;4.70;2.17;;;;;;;;;;5037948;28;20433;-81
2024/02/18 09:09:31;;;;;;;3.47;1.90;;;;;;;;;;5033017;28;20485;-83
2024/02/18 09:11:57;;;;;;;4.10;2.45;;;;;;;;;;5032806;28;20416;-80
2024/02/18 09:14:23;;;;;;;6.07;1.90;;;;;;;;;;5035168;28;20640;-81
2024/02/18 09:16:49;;;;;;;2.72;1.48;;;;;;;;;;5032250;28;20451;-80
2024/02/18 09:19:16;;;;;;;3.13;2.17;;;;;;;;;;5029806;28;20623;-80
2024/02/18 09:21:42;;;;;;;3.67;2.13;;;;;;;;;;5033067;28;20241;-80
2024/02/18 09:24:08;;;;;;;7.20;2.15;;;;;;;;;;5030957;28;20266;-81
2024/02/18 09:26:34;;;;;;;6.43;3.17;;;;;;;;;;5029720;28;20649;-81
2024/02/18 09:29:00;;;;;;;5.72;2.10;;;;;;;;;;5029786;28;20476;-82
2024/02/18 09:31:26;;;;;;;9.73;3.80;;;;;;;;;;5034704;28;20569;-81
2024/02/18 09:33:52;;;;;;;4.20;2.23;;;;;;;;;;5032102;28;20433;-81
2024/02/18 09:36:18;;;;;;;6.10;3.23;;;;;;;;;;5028869;28;20524;-81
2024/02/18 09:38:44;;;;;;;3.20;2.27;;;;;;;;;;5028875;28;20431;-80
2024/02/18 09:41:16;;;;;;;3.70;2.33;;;;;;;;;;5036886;28;20429;-81
2024/02/18 09:43:44;;;;;;;4.38;2.78;;;;;;;;;;5034214;28;20506;-81
2024/02/18 09:46:13;;;;;;;3.85;2.78;;;;;;;;;;5027356;28;20262;-81
2024/02/18 09:48:39;;;;;;;6.40;2.55;;;;;;;;;;5033150;28;20779;-80
2024/02/18 09:51:05;;;;;;;5.97;2.20;;;;;;;;;;5027495;28;20182;-80
2024/02/18 09:53:33;;;;;;;4.75;2.70;;;;;;;;;;5032734;28;20265;-81
2024/02/18 09:56:00;;;;;;;2.75;1.50;;;;;;;;;;5028778;28;20198;-81
2024/02/18 09:58:26;;;;;;;4.18;2.33;;;;;;;;;;5032041;28;20281;-81
2024/02/18 10:00:53;;;;;;;4.20;1.90;;;;;;;;;;5031787;28;20186;-81
2024/02/18 10:03:19;;;;;;;5.93;2.40;;;;;;;;;;5030175;28;20166;-85
2024/02/18 10:05:45;;;;;;;9.68;2.60;;;;;;;;;;5030227;28;20269;-84
2024/02/18 10:08:11;;;;;;;4.63;2.30;;;;;;;;;;5037590;28;20799;-85
2024/02/18 10:10:37;;;;;;;4.43;1.90;;;;;;;;;;5050567;28;20223;-82
2024/02/18 10:13:04;;;;;;;3.42;2.40;;;;;;;;;;5031387;28;20665;-81
2024/02/18 10:15:31;;;;;;;5.53;2.35;;;;;;;;;;5029550;28;20187;-82
2024/02/18 10:17:57;;;;;;;5.15;2.45;;;;;;;;;;5033176;28;20206;-82
2024/02/18 10:20:24;;;;;;;4.53;2.30;;;;;;;;;;5031353;28;20177;-82
2024/02/18 10:22:51;;;;;;;5.50;2.00;;;;;;;;;;5031099;28;20261;-85
2024/02/18 10:25:18;;;;;;;2.40;1.90;;;;;;;;;;5034961;28;20645;-83
2024/02/18 10:27:44;;;;;;;4.35;2.50;;;;;;;;;;5034851;28;20280;-82
2024/02/18 10:30:11;;;;;;;8.67;2.83;;;;;;;;;;5030896;28;20189;-83
2024/02/18 10:32:37;;;;;;;3.42;2.60;;;;;;;;;;5025630;28;20425;-82
2024/02/18 10:35:05;;;;;;;6.47;3.47;;;;;;;;;;5031687;28;20280;-86
2024/02/18 10:37:41;;;;;;;4.85;3.40;;;;;;;;;;5029477;28;20258;-84
2024/02/18 10:40:09;;;;;;;7.03;3.90;;;;;;;;;;5033719;28;20182;-85
2024/02/18 10:42:37;;;;;;;4.40;2.63;;;;;;;;;;5025007;28;20541;-85
2024/02/18 10:45:05;;;;;;;9.23;3.60;;;;;;;;;;5054144;28;20186;-83
2024/02/18 10:47:31;;;;;;;7.13;3.20;;;;;;;;;;5032569;28;20256;-85
2024/02/18 10:50:04;;;;;;;11.82;3.58;;;;;;;;;;5024412;28;20540;-84
2024/02/18 10:52:44;;;;;;;6.72;3.15;;;;;;;;;;5026925;28;20182;-85
2024/02/18 10:55:11;;;;;;;8.65;3.50;;;;;;;;;;5031402;28;20236;-85
2024/02/18 10:57:44;;;;;;;10.77;4.13;;;;;;;;;;5043281;28;20264;-86
2024/02/18 11:00:11;;;;;;;4.80;3.38;;;;;;;;;;5037035;28;20227;-87
2024/02/18 11:02:59;;;;;;;11.35;3.47;;;;;;;;;;5039490;28;20208;-88
2024/02/18 11:05:32;;;;;;;8.50;3.55;;;;;;;;;;5040493;28;20534;-85
2024/02/18 11:07:58;;;;;;;7.05;4.03;;;;;;;;;;5037628;28;20200;-86
2024/02/18 11:10:24;;;;;;;5.15;3.30;;;;;;;;;;5040449;28;20268;-86
2024/02/18 11:12:51;;;;;;;12.65;3.92;;;;;;;;;;5049314;28;20259;-86
2024/02/18 11:15:17;;;;;;;7.50;3.70;;;;;;;;;;5035196;28;20202;-85
2024/02/18 11:17:44;;;;;;;8.10;3.40;;;;;;;;;;5029799;28;20194;-84
2024/02/18 11:20:11;;;;;;;5.95;3.58;;;;;;;;;;5036051;28;20444;-85
2024/02/18 11:22:38;;;;;;;3.25;2.92;;;;;;;;;;5035882;28;20537;-85
2024/02/18 11:25:07;;;;;;;8.90;2.97;;;;;;;;;;5029206;28;20223;-85
2024/02/18 11:27:35;;;;;;;4.80;3.03;;;;;;;;;;5043343;28;20738;-84
2024/02/18 11:30:02;;;;;;;4.90;2.92;;;;;;;;;;5036861;28;20284;-84
2024/02/18 11:32:28;;;;;;;10.15;3.70;;;;;;;;;;5035533;28;20272;-85
2024/02/18 11:34:54;;;;;;;8.48;3.20;;;;;;;;;;5031063;28;20212;-85
2024/02/18 11:37:35;;;;;;;6.75;2.80;;;;;;;;;;5046123;28;20186;-85
2024/02/18 11:40:06;;;;;;;5.40;3.30;;;;;;;;;;5030517;28;20187;-83
2024/02/18 11:42:32;;;;;;;7.97;3.83;;;;;;;;;;5027647;28;20178;-84
2024/02/18 11:45:10;;;;;;;7.83;5.00;;;;;;;;;;5031169;28;20236;-84
2024/02/18 11:47:36;;;;;;;6.43;3.53;;;;;;;;;;5035556;28;21067;-83
2024/02/18 11:50:04;;;;;;;8.75;3.70;;;;;;;;;;5033458;28;20540;-85
2024/02/18 11:52:30;;;;;;;6.25;3.30;;;;;;;;;;5040918;28;20589;-86
2024/02/18 11:54:56;;;;;;;9.00;3.55;;;;;;;;;;5034347;28;20534;-86
2024/02/18 11:57:22;;;;;;;10.77;3.23;;;;;;;;;;5030635;28;20183;-88
2024/02/18 11:59:48;;;;;;;10.73;3.80;;;;;;;;;;5031967;28;20421;-85
2024/02/18 12:02:18;;;;;;;7.73;3.47;;;;;;;;;;5021602;28;20247;-87
2024/02/18 12:04:44;;;;;;;7.45;3.47;;;;;;;;;;5048789;28;20979;-86
2024/02/18 12:07:10;;;;;;;10.70;3.77;;;;;;;;;;5037168;28;20213;-87
2024/02/18 12:09:36;;;;;;;10.77;3.50;;;;;;;;;;5036901;28;20476;-86
2024/02/18 12:12:07;;;;;;;8.70;3.63;;;;;;;;;;5040920;28;20658;-86
2024/02/18 12:14:33;;;;;;;3.58;3.05;;;;;;;;;;5040364;28;20994;-87
2024/02/18 12:16:59;;;;;;;4.20;2.90;;;;;;;;;;5032855;28;20184;-85
2024/02/18 12:19:25;;;;;;;5.83;3.90;;;;;;;;;;5035176;28;20447;-86
2024/02/18 12:21:55;;;;;;;5.18;4.10;;;;;;;;;;5035615;28;20527;-85
2024/02/18 12:24:22;;;;;;;8.68;3.50;;;;;;;;;;5034923;28;20174;-85
2024/02/18 12:26:48;;;;;;;7.68;4.10;;;;;;;;;;5025295;28;20182;-85
2024/02/18 12:29:14;;;;;;;5.60;3.60;;;;;;;;;;5026563;28;20217;-86
2024/02/18 12:31:43;;;;;;;7.10;3.90;;;;;;;;;;5031808;28;20178;-85
2024/02/18 12:34:09;;;;;;;5.55;3.67;;;;;;;;;;5030192;28;20189;-87
2024/02/18 12:36:35;;;;;;;5.73;3.77;;;;;;;;;;5032294;28;20193;-86
2024/02/18 12:39:01;;;;;;;5.45;3.63;;;;;;;;;;5026481;28;20441;-85
2024/02/18 12:41:27;;;;;;;8.32;3.17;;;;;;;;;;5036247;28;20592;-84
2024/02/18 12:43:53;;;;;;;6.27;3.40;;;;;;;;;;5040645;28;20192;-85
2024/02/18 12:46:20;;;;;;;6.33;3.80;;;;;;;;;;5055977;28;20813;-85
2024/02/18 12:48:46;;;;;;;5.63;3.47;;;;;;;;;;5029115;28;20499;-85
2024/02/18 12:51:13;;;;;;;5.00;3.60;;;;;;;;;;5017275;28;20186;-85
2024/02/18 12:53:39;;;;;;;6.15;3.28;;;;;;;;;;5027629;28;20433;-84
2024/02/18 12:56:06;;;;;;;5.50;3.60;;;;;;;;;;5031580;28;20183;-83
2024/02/18 12:58:33;;;;;;;9.10;3.15;;;;;;;;;;5047003;28;20317;-84
2024/02/18 13:00:59;;;;;;;4.75;3.10;;;;;;;;;;5036062;28;20194;-87
2024/02/18 13:03:25;;;;;;;6.65;2.72;;;;;;;;;;5034247;28;20212;-84
2024/02/18 13:05:51;;;;;;;6.43;3.00;;;;;;;;;;5032752;28;20610;-85
2024/02/18 13:08:17;;;;;;;6.22;2.90;;;;;;;;;;5026811;28;20296;-86
2024/02/18 13:10:43;;;;;;;4.40;3.50;;;;;;;;;;5032257;28;20198;-86
2024/02/18 13:13:12;;;;;;;6.60;2.80;;;;;;;;;;5039814;28;20197;-85
2024/02/18 13:15:38;;;;;;;4.65;3.15;;;;;;;;;;5031480;28;20495;-85
2024/02/18 13:18:04;;;;;;;7.10;4.00;;;;;;;;;;5026475;28;20600;-85
2024/02/18 13:20:30;;;;;;;6.70;2.80;;;;;;;;;;5034885;28;20424;-85
2024/02/18 13:22:56;;;;;;;5.90;2.88;;;;;;;;;;5039343;28;20190;-89
2024/02/18 13:25:22;;;;;;;6.65;3.28;;;;;;;;;;5035280;28;20258;-85
2024/02/18 13:27:48;;;;;;;3.05;2.72;;;;;;;;;;5032696;28;20213;-85
2024/02/18 13:30:14;;;;;;;4.60;3.10;;;;;;;;;;5015893;28;20284;-86
2024/02/18 13:32:41;;;;;;;3.38;2.78;;;;;;;;;;5032724;28;20185;-87
2024/02/18 13:35:07;;;;;;;4.60;3.20;;;;;;;;;;5033943;28;20182;-85
2024/02/18 13:37:33;;;;;;;6.03;3.08;;;;;;;;;;5029920;28;20673;-86
2024/02/18 13:39:59;;;;;;;7.72;2.80;;;;;;;;;;5042361;28;20268;-85
2024/02/18 13:42:25;;;;;;;5.30;3.23;;;;;;;;;;5033571;28;20273;-85
2024/02/18 13:44:51;;;;;;;5.03;3.10;;;;;;;;;;5057411;28;20989;-84
2024/02/18 13:47:20;;;;;;;5.00;3.50;;;;;;;;;;5036429;28;20229;-87
2024/02/18 13:49:46;;;;;;;4.35;2.42;;;;;;;;;;5031309;28;20452;-87
2024/02/18 13:52:12;;;;;;;5.05;4.15;;;;;;;;;;5034752;28;20647;-85
2024/02/18 13:54:38;;;;;;;8.77;3.10;;;;;;;;;;5030830;28;20182;-86
2024/02/18 13:57:07;;;;;;;6.55;2.58;;;;;;;;;;5031679;28;20428;-84
2024/02/18 13:59:34;;;;;;;3.53;2.75;;;;;;;;;;5027019;28;20186;-85
2024/02/18 14:02:00;;;;;;;5.82;3.08;;;;;;;;;;5030154;28;20524;-85
2024/02/18 14:04:26;;;;;;;3.42;2.75;;;;;;;;;;5023751;28;20185;-85
2024/02/18 14:06:52;;;;;;;3.50;2.65;;;;;;;;;;5033152;28;20274;-84
2024/02/18 14:09:18;;;;;;;4.07;2.93;;;;;;;;;;5036631;28;20244;-84
2024/02/18 14:11:44;;;;;;;4.43;3.10;;;;;;;;;;5037060;28;20429;-84
2024/02/18 14:14:11;;;;;;;5.83;3.10;;;;;;;;;;5035520;28;20435;-84
2024/02/18 14:16:39;;;;;;;7.13;3.20;;;;;;;;;;5037318;28;20479;-85
2024/02/18 14:19:05;;;;;;;4.25;3.40;;;;;;;;;;5035414;28;20197;-84
2024/02/18 14:21:31;;;;;;;5.70;3.22;;;;;;;;;;5033818;28;20596;-86
2024/02/18 14:23:57;;;;;;;4.03;2.85;;;;;;;;;;5036064;28;20201;-84
2024/02/18 14:26:23;;;;;;;5.80;3.70;;;;;;;;;;5035308;28;20182;-85
2024/02/18 14:28:50;;;;;;;7.22;3.40;;;;;;;;;;5033718;28;20214;-86
2024/02/18 14:31:16;;;;;;;3.67;2.22;;;;;;;;;;5037300;28;20183;-86
2024/02/18 14:33:42;;;;;;;7.25;2.20;;;;;;;;;;5037756;28;20182;-86
2024/02/18 14:36:09;;;;;;;3.47;2.30;;;;;;;;;;5038545;28;20193;-85